Terminal Aerodrome Forecast
Issued by NWS

Home | Current Version | Previous Version | Graphics & Text | Print | Product List | Glossary On
Versions: 1 2 3 4 5 6 7 8 9 10 11 12 13 14 15 16 17 18 19 20
705
FTUS43 KBIS 201723
TAFDIK
TAF
KDIK 201723Z 2018/2118 27007KT P6SM VCSH FEW004 OVC015
     FM202000 32008KT P6SM BKN020
     FM202100 34010KT P6SM BKN040
     FM202300 01011KT P6SM BKN070
     FM210900 07009KT P6SM BKN060
     FM211500 09010KT P6SM OVC030=

USA.gov is the U.S. government's official web portal to all federal, state and local government web resources and services.